sensor_id;sensor_type;location;lat;lon;timestamp;P1;durP1;ratioP1;P2;durP2;ratioP2
22614;SDS011;11474;50.790;0.298;2023-03-20T00:02:19;29.23;;;4.03;;
22614;SDS011;11474;50.790;0.298;2023-03-20T00:04:45;27.65;;;3.53;;
22614;SDS011;11474;50.790;0.298;2023-03-20T00:07:11;24.17;;;4.13;;
22614;SDS011;11474;50.790;0.298;2023-03-20T00:09:38;24.92;;;3.60;;
22614;SDS011;11474;50.790;0.298;2023-03-20T00:12:04;18.55;;;3.65;;
22614;SDS011;11474;50.790;0.298;2023-03-20T00:14:30;24.10;;;3.85;;
22614;SDS011;11474;50.790;0.298;2023-03-20T00:16:58;29.08;;;3.75;;
22614;SDS011;11474;50.790;0.298;2023-03-20T00:19:25;28.58;;;4.15;;
22614;SDS011;11474;50.790;0.298;2023-03-20T00:21:52;20.98;;;3.72;;
22614;SDS011;11474;50.790;0.298;2023-03-20T00:24:19;24.17;;;4.00;;
22614;SDS011;11474;50.790;0.298;2023-03-20T00:26:45;23.13;;;3.65;;
22614;SDS011;11474;50.790;0.298;2023-03-20T00:29:25;25.85;;;4.32;;
22614;SDS011;11474;50.790;0.298;2023-03-20T00:31:52;29.75;;;4.25;;
22614;SDS011;11474;50.790;0.298;2023-03-20T00:34:19;23.43;;;3.70;;
22614;SDS011;11474;50.790;0.298;2023-03-20T00:36:47;25.85;;;3.53;;
22614;SDS011;11474;50.790;0.298;2023-03-20T00:39:13;20.37;;;3.73;;
22614;SDS011;11474;50.790;0.298;2023-03-20T00:41:43;21.77;;;3.60;;
22614;SDS011;11474;50.790;0.298;2023-03-20T00:46:41;19.23;;;3.67;;
22614;SDS011;11474;50.790;0.298;2023-03-20T00:49:10;25.33;;;4.10;;
22614;SDS011;11474;50.790;0.298;2023-03-20T00:51:36;24.08;;;3.85;;
22614;SDS011;11474;50.790;0.298;2023-03-20T00:54:11;24.85;;;4.38;;
22614;SDS011;11474;50.790;0.298;2023-03-20T00:56:41;26.02;;;4.43;;
22614;SDS011;11474;50.790;0.298;2023-03-20T00:59:12;23.13;;;4.28;;
22614;SDS011;11474;50.790;0.298;2023-03-20T01:01:39;28.67;;;4.93;;
22614;SDS011;11474;50.790;0.298;2023-03-20T01:04:13;23.38;;;4.18;;
22614;SDS011;11474;50.790;0.298;2023-03-20T01:06:39;23.95;;;3.85;;
22614;SDS011;11474;50.790;0.298;2023-03-20T01:09:06;23.85;;;4.25;;
22614;SDS011;11474;50.790;0.298;2023-03-20T01:11:32;22.80;;;4.38;;
22614;SDS011;11474;50.790;0.298;2023-03-20T01:13:58;27.02;;;4.38;;
22614;SDS011;11474;50.790;0.298;2023-03-20T01:16:25;22.08;;;3.30;;
22614;SDS011;11474;50.790;0.298;2023-03-20T01:18:51;24.10;;;4.13;;
22614;SDS011;11474;50.790;0.298;2023-03-20T01:21:18;23.58;;;4.05;;
22614;SDS011;11474;50.790;0.298;2023-03-20T01:23:45;26.35;;;4.15;;
22614;SDS011;11474;50.790;0.298;2023-03-20T01:28:47;24.17;;;3.80;;
22614;SDS011;11474;50.790;0.298;2023-03-20T01:31:15;27.73;;;4.97;;
22614;SDS011;11474;50.790;0.298;2023-03-20T01:33:41;22.55;;;4.22;;
22614;SDS011;11474;50.790;0.298;2023-03-20T01:36:14;21.73;;;3.87;;
22614;SDS011;11474;50.790;0.298;2023-03-20T01:38:40;25.08;;;4.38;;
22614;SDS011;11474;50.790;0.298;2023-03-20T01:43:36;27.80;;;3.73;;
22614;SDS011;11474;50.790;0.298;2023-03-20T01:51:18;23.27;;;4.07;;
22614;SDS011;11474;50.790;0.298;2023-03-20T01:53:45;25.85;;;5.13;;
22614;SDS011;11474;50.790;0.298;2023-03-20T01:56:13;28.50;;;4.40;;
22614;SDS011;11474;50.790;0.298;2023-03-20T01:58:41;27.25;;;4.18;;
22614;SDS011;11474;50.790;0.298;2023-03-20T02:01:09;26.20;;;4.47;;
22614;SDS011;11474;50.790;0.298;2023-03-20T02:03:37;26.63;;;4.35;;
22614;SDS011;11474;50.790;0.298;2023-03-20T02:06:04;23.67;;;4.68;;
22614;SDS011;11474;50.790;0.298;2023-03-20T02:08:31;21.50;;;3.97;;
22614;SDS011;11474;50.790;0.298;2023-03-20T02:11:01;28.75;;;4.20;;
22614;SDS011;11474;50.790;0.298;2023-03-20T02:13:29;25.95;;;4.47;;
22614;SDS011;11474;50.790;0.298;2023-03-20T02:15:57;27.48;;;4.15;;
22614;SDS011;11474;50.790;0.298;2023-03-20T02:18:24;31.27;;;5.53;;
22614;SDS011;11474;50.790;0.298;2023-03-20T02:21:15;24.42;;;4.82;;
22614;SDS011;11474;50.790;0.298;2023-03-20T02:23:54;28.25;;;5.40;;
22614;SDS011;11474;50.790;0.298;2023-03-20T02:39:58;34.75;;;5.32;;
22614;SDS011;11474;50.790;0.298;2023-03-20T02:42:38;32.03;;;4.82;;
22614;SDS011;11474;50.790;0.298;2023-03-20T02:45:11;28.80;;;5.25;;
22614;SDS011;11474;50.790;0.298;2023-03-20T02:47:55;27.02;;;4.43;;
22614;SDS011;11474;50.790;0.298;2023-03-20T02:50:27;35.40;;;4.68;;
22614;SDS011;11474;50.790;0.298;2023-03-20T02:53:03;36.33;;;4.78;;
22614;SDS011;11474;50.790;0.298;2023-03-20T02:55:38;21.40;;;4.13;;
22614;SDS011;11474;50.790;0.298;2023-03-20T02:58:20;28.13;;;4.53;;
22614;SDS011;11474;50.790;0.298;2023-03-20T03:00:57;25.08;;;4.22;;
22614;SDS011;11474;50.790;0.298;2023-03-20T03:03:34;24.73;;;4.20;;
22614;SDS011;11474;50.790;0.298;2023-03-20T03:06:15;22.93;;;4.93;;
22614;SDS011;11474;50.790;0.298;2023-03-20T03:08:43;25.35;;;4.70;;
22614;SDS011;11474;50.790;0.298;2023-03-20T03:11:12;29.83;;;5.05;;
22614;SDS011;11474;50.790;0.298;2023-03-20T03:13:39;26.42;;;4.30;;
22614;SDS011;11474;50.790;0.298;2023-03-20T03:16:12;28.23;;;4.57;;
22614;SDS011;11474;50.790;0.298;2023-03-20T03:18:39;29.35;;;4.97;;
22614;SDS011;11474;50.790;0.298;2023-03-20T03:21:06;23.65;;;4.97;;
22614;SDS011;11474;50.790;0.298;2023-03-20T03:23:36;24.55;;;4.53;;
22614;SDS011;11474;50.790;0.298;2023-03-20T03:26:05;32.47;;;4.88;;
22614;SDS011;11474;50.790;0.298;2023-03-20T03:31:04;34.22;;;5.78;;
22614;SDS011;11474;50.790;0.298;2023-03-20T03:33:31;21.25;;;4.30;;
22614;SDS011;11474;50.790;0.298;2023-03-20T03:36:47;28.73;;;4.95;;
22614;SDS011;11474;50.790;0.298;2023-03-20T03:41:25;29.03;;;4.60;;
22614;SDS011;11474;50.790;0.298;2023-03-20T03:48:58;31.73;;;5.70;;
22614;SDS011;11474;50.790;0.298;2023-03-20T03:51:26;35.38;;;5.78;;
22614;SDS011;11474;50.790;0.298;2023-03-20T03:53:55;42.55;;;6.63;;
22614;SDS011;11474;50.790;0.298;2023-03-20T03:56:22;27.30;;;5.28;;
22614;SDS011;11474;50.790;0.298;2023-03-20T03:58:51;32.53;;;5.43;;
22614;SDS011;11474;50.790;0.298;2023-03-20T04:01:18;35.23;;;5.47;;
22614;SDS011;11474;50.790;0.298;2023-03-20T04:03:46;29.83;;;4.88;;
22614;SDS011;11474;50.790;0.298;2023-03-20T04:06:13;30.48;;;5.05;;
22614;SDS011;11474;50.790;0.298;2023-03-20T04:08:41;28.08;;;5.18;;
22614;SDS011;11474;50.790;0.298;2023-03-20T04:11:14;30.73;;;5.32;;
22614;SDS011;11474;50.790;0.298;2023-03-20T04:13:41;31.65;;;5.32;;
22614;SDS011;11474;50.790;0.298;2023-03-20T04:16:11;29.75;;;4.68;;
22614;SDS011;11474;50.790;0.298;2023-03-20T04:18:38;24.55;;;4.90;;
22614;SDS011;11474;50.790;0.298;2023-03-20T04:21:04;28.27;;;5.30;;
22614;SDS011;11474;50.790;0.298;2023-03-20T04:23:31;35.75;;;6.03;;
22614;SDS011;11474;50.790;0.298;2023-03-20T04:25:57;30.33;;;5.32;;
22614;SDS011;11474;50.790;0.298;2023-03-20T04:28:23;35.00;;;5.53;;
22614;SDS011;11474;50.790;0.298;2023-03-20T04:30:53;34.70;;;6.03;;
22614;SDS011;11474;50.790;0.298;2023-03-20T04:33:19;26.98;;;6.35;;
22614;SDS011;11474;50.790;0.298;2023-03-20T04:35:45;35.17;;;5.70;;
22614;SDS011;11474;50.790;0.298;2023-03-20T04:38:11;40.50;;;6.45;;
22614;SDS011;11474;50.790;0.298;2023-03-20T04:40:37;32.15;;;5.70;;
22614;SDS011;11474;50.790;0.298;2023-03-20T04:43:04;34.65;;;6.43;;
22614;SDS011;11474;50.790;0.298;2023-03-20T04:45:30;34.07;;;5.47;;
22614;SDS011;11474;50.790;0.298;2023-03-20T04:47:56;30.70;;;5.88;;
22614;SDS011;11474;50.790;0.298;2023-03-20T04:50:22;35.67;;;5.40;;
22614;SDS011;11474;50.790;0.298;2023-03-20T04:52:48;32.10;;;5.47;;
22614;SDS011;11474;50.790;0.298;2023-03-20T04:55:14;40.63;;;7.00;;
22614;SDS011;11474;50.790;0.298;2023-03-20T04:57:40;38.15;;;5.95;;
22614;SDS011;11474;50.790;0.298;2023-03-20T05:00:07;38.38;;;5.88;;
22614;SDS011;11474;50.790;0.298;2023-03-20T05:02:33;38.70;;;6.05;;
22614;SDS011;11474;50.790;0.298;2023-03-20T05:04:59;36.90;;;5.53;;
22614;SDS011;11474;50.790;0.298;2023-03-20T05:07:26;37.72;;;5.45;;
22614;SDS011;11474;50.790;0.298;2023-03-20T05:09:52;35.05;;;5.25;;
22614;SDS011;11474;50.790;0.298;2023-03-20T05:12:18;33.70;;;5.22;;
22614;SDS011;11474;50.790;0.298;2023-03-20T05:14:44;30.17;;;5.53;;
22614;SDS011;11474;50.790;0.298;2023-03-20T05:17:10;35.07;;;5.60;;
22614;SDS011;11474;50.790;0.298;2023-03-20T05:19:36;31.75;;;5.20;;
22614;SDS011;11474;50.790;0.298;2023-03-20T05:22:03;35.60;;;5.55;;
22614;SDS011;11474;50.790;0.298;2023-03-20T05:24:29;32.63;;;5.93;;
22614;SDS011;11474;50.790;0.298;2023-03-20T05:26:55;34.40;;;5.85;;
22614;SDS011;11474;50.790;0.298;2023-03-20T05:29:22;32.85;;;5.15;;
22614;SDS011;11474;50.790;0.298;2023-03-20T05:31:48;33.28;;;5.72;;
22614;SDS011;11474;50.790;0.298;2023-03-20T05:34:14;30.58;;;4.93;;
22614;SDS011;11474;50.790;0.298;2023-03-20T05:36:40;37.17;;;5.40;;
22614;SDS011;11474;50.790;0.298;2023-03-20T05:39:06;42.13;;;7.63;;
22614;SDS011;11474;50.790;0.298;2023-03-20T05:41:32;34.97;;;6.00;;
22614;SDS011;11474;50.790;0.298;2023-03-20T05:43:58;40.42;;;6.22;;
22614;SDS011;11474;50.790;0.298;2023-03-20T05:46:24;37.60;;;6.00;;
22614;SDS011;11474;50.790;0.298;2023-03-20T05:48:50;41.25;;;7.20;;
22614;SDS011;11474;50.790;0.298;2023-03-20T05:51:16;36.38;;;5.63;;
22614;SDS011;11474;50.790;0.298;2023-03-20T05:53:42;33.75;;;5.47;;
22614;SDS011;11474;50.790;0.298;2023-03-20T05:56:08;30.90;;;5.60;;
22614;SDS011;11474;50.790;0.298;2023-03-20T05:58:34;40.28;;;6.72;;
22614;SDS011;11474;50.790;0.298;2023-03-20T06:01:01;40.25;;;6.22;;
22614;SDS011;11474;50.790;0.298;2023-03-20T06:03:27;40.47;;;5.88;;
22614;SDS011;11474;50.790;0.298;2023-03-20T06:05:53;34.42;;;5.63;;
22614;SDS011;11474;50.790;0.298;2023-03-20T06:08:19;40.38;;;5.47;;
22614;SDS011;11474;50.790;0.298;2023-03-20T06:10:45;32.58;;;5.57;;
22614;SDS011;11474;50.790;0.298;2023-03-20T06:13:11;40.53;;;6.20;;
22614;SDS011;11474;50.790;0.298;2023-03-20T06:15:37;31.95;;;5.63;;
22614;SDS011;11474;50.790;0.298;2023-03-20T06:18:03;36.57;;;6.07;;
22614;SDS011;11474;50.790;0.298;2023-03-20T06:20:29;40.85;;;5.65;;
22614;SDS011;11474;50.790;0.298;2023-03-20T06:22:55;39.72;;;6.18;;
22614;SDS011;11474;50.790;0.298;2023-03-20T06:25:21;39.33;;;6.13;;
22614;SDS011;11474;50.790;0.298;2023-03-20T06:27:48;31.02;;;5.70;;
22614;SDS011;11474;50.790;0.298;2023-03-20T06:30:14;39.05;;;7.03;;
22614;SDS011;11474;50.790;0.298;2023-03-20T06:32:41;41.50;;;5.55;;
22614;SDS011;11474;50.790;0.298;2023-03-20T06:35:07;41.13;;;6.55;;
22614;SDS011;11474;50.790;0.298;2023-03-20T06:37:33;40.30;;;6.53;;
22614;SDS011;11474;50.790;0.298;2023-03-20T06:40:00;34.17;;;5.97;;
22614;SDS011;11474;50.790;0.298;2023-03-20T06:42:27;36.67;;;5.50;;
22614;SDS011;11474;50.790;0.298;2023-03-20T06:44:53;36.67;;;6.05;;
22614;SDS011;11474;50.790;0.298;2023-03-20T06:47:20;39.47;;;7.60;;
22614;SDS011;11474;50.790;0.298;2023-03-20T06:49:46;35.35;;;5.50;;
22614;SDS011;11474;50.790;0.298;2023-03-20T06:52:13;30.02;;;5.93;;
22614;SDS011;11474;50.790;0.298;2023-03-20T06:54:40;43.75;;;6.00;;
22614;SDS011;11474;50.790;0.298;2023-03-20T06:57:06;38.30;;;6.35;;
22614;SDS011;11474;50.790;0.298;2023-03-20T06:59:32;41.72;;;6.60;;
22614;SDS011;11474;50.790;0.298;2023-03-20T07:01:58;31.90;;;6.03;;
22614;SDS011;11474;50.790;0.298;2023-03-20T07:04:25;47.92;;;6.30;;
22614;SDS011;11474;50.790;0.298;2023-03-20T07:06:51;36.13;;;6.13;;
22614;SDS011;11474;50.790;0.298;2023-03-20T07:09:17;46.65;;;7.60;;
22614;SDS011;11474;50.790;0.298;2023-03-20T07:11:46;38.17;;;6.43;;
22614;SDS011;11474;50.790;0.298;2023-03-20T07:14:12;43.90;;;6.22;;
22614;SDS011;11474;50.790;0.298;2023-03-20T07:16:39;30.50;;;5.78;;
22614;SDS011;11474;50.790;0.298;2023-03-20T07:19:05;38.72;;;6.15;;
22614;SDS011;11474;50.790;0.298;2023-03-20T07:21:31;37.03;;;6.30;;
22614;SDS011;11474;50.790;0.298;2023-03-20T07:23:58;46.10;;;6.45;;
22614;SDS011;11474;50.790;0.298;2023-03-20T07:26:25;36.53;;;6.03;;
22614;SDS011;11474;50.790;0.298;2023-03-20T07:28:51;36.30;;;5.95;;
22614;SDS011;11474;50.790;0.298;2023-03-20T07:31:18;41.15;;;6.60;;
22614;SDS011;11474;50.790;0.298;2023-03-20T07:33:45;38.43;;;5.73;;
22614;SDS011;11474;50.790;0.298;2023-03-20T07:36:11;41.00;;;6.55;;
22614;SDS011;11474;50.790;0.298;2023-03-20T07:38:37;43.40;;;6.10;;
22614;SDS011;11474;50.790;0.298;2023-03-20T07:41:03;34.05;;;5.57;;
22614;SDS011;11474;50.790;0.298;2023-03-20T07:43:29;35.27;;;6.33;;
22614;SDS011;11474;50.790;0.298;2023-03-20T07:45:55;41.08;;;6.18;;
22614;SDS011;11474;50.790;0.298;2023-03-20T07:48:21;40.27;;;6.53;;
22614;SDS011;11474;50.790;0.298;2023-03-20T07:50:47;41.20;;;6.43;;
22614;SDS011;11474;50.790;0.298;2023-03-20T07:53:13;32.97;;;6.17;;
22614;SDS011;11474;50.790;0.298;2023-03-20T07:55:39;32.30;;;5.88;;
22614;SDS011;11474;50.790;0.298;2023-03-20T07:58:05;30.23;;;5.07;;
22614;SDS011;11474;50.790;0.298;2023-03-20T08:00:32;27.73;;;5.50;;
22614;SDS011;11474;50.790;0.298;2023-03-20T08:02:58;26.73;;;4.88;;
22614;SDS011;11474;50.790;0.298;2023-03-20T08:05:25;24.02;;;4.38;;
22614;SDS011;11474;50.790;0.298;2023-03-20T08:07:51;29.85;;;5.18;;
22614;SDS011;11474;50.790;0.298;2023-03-20T08:10:17;31.90;;;5.57;;
22614;SDS011;11474;50.790;0.298;2023-03-20T08:12:43;40.15;;;6.57;;
22614;SDS011;11474;50.790;0.298;2023-03-20T08:15:10;32.88;;;5.40;;
22614;SDS011;11474;50.790;0.298;2023-03-20T08:17:36;36.60;;;6.20;;
22614;SDS011;11474;50.790;0.298;2023-03-20T08:20:02;33.03;;;6.88;;
22614;SDS011;11474;50.790;0.298;2023-03-20T08:22:29;39.83;;;6.95;;
22614;SDS011;11474;50.790;0.298;2023-03-20T08:24:55;45.58;;;6.88;;
22614;SDS011;11474;50.790;0.298;2023-03-20T08:27:22;48.00;;;7.67;;
22614;SDS011;11474;50.790;0.298;2023-03-20T08:29:49;44.27;;;6.83;;
22614;SDS011;11474;50.790;0.298;2023-03-20T08:32:15;47.75;;;6.88;;
22614;SDS011;11474;50.790;0.298;2023-03-20T08:34:42;38.22;;;6.72;;
22614;SDS011;11474;50.790;0.298;2023-03-20T08:37:08;49.28;;;7.00;;
22614;SDS011;11474;50.790;0.298;2023-03-20T08:39:36;38.58;;;7.35;;
22614;SDS011;11474;50.790;0.298;2023-03-20T08:42:03;42.35;;;7.00;;
22614;SDS011;11474;50.790;0.298;2023-03-20T08:44:29;42.00;;;6.63;;
22614;SDS011;11474;50.790;0.298;2023-03-20T08:46:55;45.20;;;6.47;;
22614;SDS011;11474;50.790;0.298;2023-03-20T08:49:22;47.15;;;6.70;;
22614;SDS011;11474;50.790;0.298;2023-03-20T08:51:48;42.15;;;7.22;;
22614;SDS011;11474;50.790;0.298;2023-03-20T08:54:14;40.42;;;6.88;;
22614;SDS011;11474;50.790;0.298;2023-03-20T08:56:43;39.08;;;7.10;;
22614;SDS011;11474;50.790;0.298;2023-03-20T08:59:09;47.30;;;7.15;;
22614;SDS011;11474;50.790;0.298;2023-03-20T09:01:36;49.05;;;6.55;;
22614;SDS011;11474;50.790;0.298;2023-03-20T09:04:02;41.33;;;6.70;;
22614;SDS011;11474;50.790;0.298;2023-03-20T09:06:28;42.77;;;7.03;;
22614;SDS011;11474;50.790;0.298;2023-03-20T09:08:55;48.77;;;6.40;;
22614;SDS011;11474;50.790;0.298;2023-03-20T09:11:21;36.15;;;5.68;;
22614;SDS011;11474;50.790;0.298;2023-03-20T09:13:48;33.43;;;5.97;;
22614;SDS011;11474;50.790;0.298;2023-03-20T09:16:14;34.72;;;5.68;;
22614;SDS011;11474;50.790;0.298;2023-03-20T09:18:40;40.83;;;5.72;;
22614;SDS011;11474;50.790;0.298;2023-03-20T09:21:06;38.95;;;5.80;;
22614;SDS011;11474;50.790;0.298;2023-03-20T09:23:33;28.33;;;5.05;;
22614;SDS011;11474;50.790;0.298;2023-03-20T09:25:59;34.97;;;6.13;;
22614;SDS011;11474;50.790;0.298;2023-03-20T09:28:25;33.73;;;5.70;;
22614;SDS011;11474;50.790;0.298;2023-03-20T09:30:55;31.63;;;5.55;;
22614;SDS011;11474;50.790;0.298;2023-03-20T09:33:21;37.67;;;6.37;;
22614;SDS011;11474;50.790;0.298;2023-03-20T09:35:47;34.80;;;5.82;;
22614;SDS011;11474;50.790;0.298;2023-03-20T09:41:36;28.33;;;5.25;;
22614;SDS011;11474;50.790;0.298;2023-03-20T09:47:12;33.28;;;5.82;;
22614;SDS011;11474;50.790;0.298;2023-03-20T09:51:50;42.15;;;5.72;;
22614;SDS011;11474;50.790;0.298;2023-03-20T09:54:32;44.90;;;6.10;;
22614;SDS011;11474;50.790;0.298;2023-03-20T09:57:00;34.83;;;6.20;;
22614;SDS011;11474;50.790;0.298;2023-03-20T09:59:26;35.90;;;5.75;;
22614;SDS011;11474;50.790;0.298;2023-03-20T10:01:55;31.85;;;5.80;;
22614;SDS011;11474;50.790;0.298;2023-03-20T10:04:22;38.58;;;5.85;;
22614;SDS011;11474;50.790;0.298;2023-03-20T10:06:51;24.25;;;5.22;;
22614;SDS011;11474;50.790;0.298;2023-03-20T10:16:54;35.78;;;6.43;;
22614;SDS011;11474;50.790;0.298;2023-03-20T10:19:30;42.90;;;7.10;;
22614;SDS011;11474;50.790;0.298;2023-03-20T10:22:09;40.90;;;6.30;;
22614;SDS011;11474;50.790;0.298;2023-03-20T10:24:55;31.63;;;5.50;;
22614;SDS011;11474;50.790;0.298;2023-03-20T10:27:24;33.03;;;5.82;;
22614;SDS011;11474;50.790;0.298;2023-03-20T10:29:58;39.05;;;5.82;;
22614;SDS011;11474;50.790;0.298;2023-03-20T10:34:56;31.00;;;5.35;;
22614;SDS011;11474;50.790;0.298;2023-03-20T10:37:31;28.00;;;5.23;;
22614;SDS011;11474;50.790;0.298;2023-03-20T10:42:32;32.60;;;5.63;;
22614;SDS011;11474;50.790;0.298;2023-03-20T10:45:24;30.25;;;4.80;;
22614;SDS011;11474;50.790;0.298;2023-03-20T10:47:51;28.20;;;5.03;;
22614;SDS011;11474;50.790;0.298;2023-03-20T10:50:20;30.88;;;5.32;;
22614;SDS011;11474;50.790;0.298;2023-03-20T10:52:48;33.42;;;5.30;;
22614;SDS011;11474;50.790;0.298;2023-03-20T10:57:45;26.27;;;4.90;;
22614;SDS011;11474;50.790;0.298;2023-03-20T11:00:13;25.05;;;5.00;;
22614;SDS011;11474;50.790;0.298;2023-03-20T11:02:43;31.38;;;6.72;;
22614;SDS011;11474;50.790;0.298;2023-03-20T11:08:02;24.42;;;5.13;;
22614;SDS011;11474;50.790;0.298;2023-03-20T11:10:30;30.52;;;5.55;;
22614;SDS011;11474;50.790;0.298;2023-03-20T11:12:57;38.55;;;6.10;;
22614;SDS011;11474;50.790;0.298;2023-03-20T11:17:55;26.35;;;5.07;;
22614;SDS011;11474;50.790;0.298;2023-03-20T11:20:21;28.63;;;5.05;;
22614;SDS011;11474;50.790;0.298;2023-03-20T11:22:48;27.40;;;5.88;;
22614;SDS011;11474;50.790;0.298;2023-03-20T11:31:05;29.92;;;5.57;;
22614;SDS011;11474;50.790;0.298;2023-03-20T11:33:51;25.73;;;4.88;;
22614;SDS011;11474;50.790;0.298;2023-03-20T11:36:22;36.83;;;5.75;;
22614;SDS011;11474;50.790;0.298;2023-03-20T11:38:49;34.20;;;5.00;;
22614;SDS011;11474;50.790;0.298;2023-03-20T11:41:17;29.73;;;5.65;;
22614;SDS011;11474;50.790;0.298;2023-03-20T11:43:44;31.58;;;5.25;;
22614;SDS011;11474;50.790;0.298;2023-03-20T11:46:10;36.83;;;6.33;;
22614;SDS011;11474;50.790;0.298;2023-03-20T11:48:38;28.37;;;5.37;;
22614;SDS011;11474;50.790;0.298;2023-03-20T11:51:09;34.38;;;6.20;;
22614;SDS011;11474;50.790;0.298;2023-03-20T11:53:37;30.05;;;6.28;;
22614;SDS011;11474;50.790;0.298;2023-03-20T11:56:08;30.37;;;5.37;;
22614;SDS011;11474;50.790;0.298;2023-03-20T11:58:36;34.33;;;6.20;;
22614;SDS011;11474;50.790;0.298;2023-03-20T12:01:02;28.90;;;5.70;;
22614;SDS011;11474;50.790;0.298;2023-03-20T12:06:01;28.95;;;5.45;;
22614;SDS011;11474;50.790;0.298;2023-03-20T12:08:30;38.15;;;6.07;;
22614;SDS011;11474;50.790;0.298;2023-03-20T12:13:42;29.30;;;5.80;;
22614;SDS011;11474;50.790;0.298;2023-03-20T12:16:12;33.75;;;5.60;;
22614;SDS011;11474;50.790;0.298;2023-03-20T12:18:42;25.63;;;5.20;;
22614;SDS011;11474;50.790;0.298;2023-03-20T12:24:10;29.60;;;5.60;;
22614;SDS011;11474;50.790;0.298;2023-03-20T12:26:43;35.63;;;6.63;;
22614;SDS011;11474;50.790;0.298;2023-03-20T12:29:22;31.58;;;5.55;;
22614;SDS011;11474;50.790;0.298;2023-03-20T12:31:56;30.70;;;5.80;;
22614;SDS011;11474;50.790;0.298;2023-03-20T12:34:24;29.88;;;5.18;;
22614;SDS011;11474;50.790;0.298;2023-03-20T12:36:53;36.75;;;5.43;;
22614;SDS011;11474;50.790;0.298;2023-03-20T12:39:25;43.67;;;12.45;;
22614;SDS011;11474;50.790;0.298;2023-03-20T12:44:40;29.92;;;5.88;;
22614;SDS011;11474;50.790;0.298;2023-03-20T12:53:01;28.77;;;5.32;;
22614;SDS011;11474;50.790;0.298;2023-03-20T12:55:49;22.70;;;5.05;;
22614;SDS011;11474;50.790;0.298;2023-03-20T13:14:19;27.97;;;4.40;;
22614;SDS011;11474;50.790;0.298;2023-03-20T13:17:01;23.05;;;4.00;;
22614;SDS011;11474;50.790;0.298;2023-03-20T13:27:10;19.75;;;4.30;;
22614;SDS011;11474;50.790;0.298;2023-03-20T13:29:45;14.43;;;4.30;;
22614;SDS011;11474;50.790;0.298;2023-03-20T13:37:15;13.60;;;3.50;;
22614;SDS011;11474;50.790;0.298;2023-03-20T13:42:15;15.65;;;3.58;;
22614;SDS011;11474;50.790;0.298;2023-03-20T13:44:42;12.85;;;3.80;;
22614;SDS011;11474;50.790;0.298;2023-03-20T13:47:13;14.20;;;3.88;;
22614;SDS011;11474;50.790;0.298;2023-03-20T13:52:23;11.10;;;3.50;;
22614;SDS011;11474;50.790;0.298;2023-03-20T13:57:52;15.13;;;4.03;;
22614;SDS011;11474;50.790;0.298;2023-03-20T14:05:40;19.88;;;5.03;;
22614;SDS011;11474;50.790;0.298;2023-03-20T14:11:04;22.75;;;5.53;;
22614;SDS011;11474;50.790;0.298;2023-03-20T14:13:31;24.70;;;5.15;;
22614;SDS011;11474;50.790;0.298;2023-03-20T14:15:57;30.63;;;11.43;;
22614;SDS011;11474;50.790;0.298;2023-03-20T14:18:25;34.75;;;6.82;;
22614;SDS011;11474;50.790;0.298;2023-03-20T14:20:53;23.47;;;5.33;;
22614;SDS011;11474;50.790;0.298;2023-03-20T14:23:22;17.42;;;5.40;;
22614;SDS011;11474;50.790;0.298;2023-03-20T14:25:52;27.63;;;5.63;;
22614;SDS011;11474;50.790;0.298;2023-03-20T14:30:46;28.63;;;5.57;;
22614;SDS011;11474;50.790;0.298;2023-03-20T14:35:42;26.08;;;5.40;;
22614;SDS011;11474;50.790;0.298;2023-03-20T14:40:59;24.90;;;5.00;;
22614;SDS011;11474;50.790;0.298;2023-03-20T14:43:30;23.25;;;5.57;;
22614;SDS011;11474;50.790;0.298;2023-03-20T14:46:02;17.92;;;4.63;;
22614;SDS011;11474;50.790;0.298;2023-03-20T14:48:51;23.17;;;4.88;;
22614;SDS011;11474;50.790;0.298;2023-03-20T14:51:23;22.42;;;5.43;;
22614;SDS011;11474;50.790;0.298;2023-03-20T14:53:57;24.02;;;6.50;;
22614;SDS011;11474;50.790;0.298;2023-03-20T14:56:39;23.50;;;5.90;;
22614;SDS011;11474;50.790;0.298;2023-03-20T14:59:06;20.75;;;5.68;;
22614;SDS011;11474;50.790;0.298;2023-03-20T15:04:05;23.13;;;5.47;;
22614;SDS011;11474;50.790;0.298;2023-03-20T15:06:33;26.70;;;6.88;;
22614;SDS011;11474;50.790;0.298;2023-03-20T15:09:04;25.25;;;6.05;;
22614;SDS011;11474;50.790;0.298;2023-03-20T15:11:30;17.88;;;5.28;;
22614;SDS011;11474;50.790;0.298;2023-03-20T15:13:58;24.42;;;5.05;;
22614;SDS011;11474;50.790;0.298;2023-03-20T15:16:29;19.30;;;5.10;;
22614;SDS011;11474;50.790;0.298;2023-03-20T15:18:55;24.63;;;5.50;;
22614;SDS011;11474;50.790;0.298;2023-03-20T15:21:30;16.92;;;4.63;;
22614;SDS011;11474;50.790;0.298;2023-03-20T15:23:57;19.05;;;4.70;;
22614;SDS011;11474;50.790;0.298;2023-03-20T15:26:24;22.10;;;4.85;;
22614;SDS011;11474;50.790;0.298;2023-03-20T15:28:53;22.55;;;5.45;;
22614;SDS011;11474;50.790;0.298;2023-03-20T15:31:25;23.80;;;5.75;;
22614;SDS011;11474;50.790;0.298;2023-03-20T15:33:53;17.25;;;4.75;;
22614;SDS011;11474;50.790;0.298;2023-03-20T15:36:22;17.13;;;4.35;;
22614;SDS011;11474;50.790;0.298;2023-03-20T15:38:48;23.08;;;4.20;;
22614;SDS011;11474;50.790;0.298;2023-03-20T15:41:25;21.23;;;4.68;;
22614;SDS011;11474;50.790;0.298;2023-03-20T15:43:52;16.93;;;4.27;;
22614;SDS011;11474;50.790;0.298;2023-03-20T15:46:24;19.63;;;3.72;;
22614;SDS011;11474;50.790;0.298;2023-03-20T15:48:50;19.73;;;3.58;;
22614;SDS011;11474;50.790;0.298;2023-03-20T15:51:17;19.10;;;4.00;;
22614;SDS011;11474;50.790;0.298;2023-03-20T15:53:44;17.50;;;3.70;;
22614;SDS011;11474;50.790;0.298;2023-03-20T15:56:12;18.23;;;4.10;;
22614;SDS011;11474;50.790;0.298;2023-03-20T15:58:39;16.97;;;4.40;;
22614;SDS011;11474;50.790;0.298;2023-03-20T16:01:06;15.45;;;4.22;;
22614;SDS011;11474;50.790;0.298;2023-03-20T16:03:32;20.87;;;4.47;;
22614;SDS011;11474;50.790;0.298;2023-03-20T16:06:00;17.27;;;3.60;;
22614;SDS011;11474;50.790;0.298;2023-03-20T16:08:27;16.77;;;4.13;;
22614;SDS011;11474;50.790;0.298;2023-03-20T16:10:58;17.38;;;3.80;;
22614;SDS011;11474;50.790;0.298;2023-03-20T16:13:25;19.07;;;3.33;;
22614;SDS011;11474;50.790;0.298;2023-03-20T16:15:53;17.98;;;3.80;;
22614;SDS011;11474;50.790;0.298;2023-03-20T16:18:19;23.17;;;5.03;;
22614;SDS011;11474;50.790;0.298;2023-03-20T16:20:54;17.00;;;3.83;;
22614;SDS011;11474;50.790;0.298;2023-03-20T16:23:31;19.30;;;4.00;;
22614;SDS011;11474;50.790;0.298;2023-03-20T16:25:58;15.75;;;4.20;;
22614;SDS011;11474;50.790;0.298;2023-03-20T16:28:27;16.88;;;3.50;;
22614;SDS011;11474;50.790;0.298;2023-03-20T16:30:54;19.88;;;4.03;;
22614;SDS011;11474;50.790;0.298;2023-03-20T16:33:29;20.00;;;4.20;;
22614;SDS011;11474;50.790;0.298;2023-03-20T16:35:55;19.52;;;4.18;;
22614;SDS011;11474;50.790;0.298;2023-03-20T16:38:22;17.70;;;3.78;;
22614;SDS011;11474;50.790;0.298;2023-03-20T16:40:51;19.67;;;3.72;;
22614;SDS011;11474;50.790;0.298;2023-03-20T16:43:20;16.17;;;3.80;;
22614;SDS011;11474;50.790;0.298;2023-03-20T16:45:53;14.65;;;4.25;;
22614;SDS011;11474;50.790;0.298;2023-03-20T16:50:46;18.08;;;4.78;;
22614;SDS011;11474;50.790;0.298;2023-03-20T16:53:17;24.27;;;4.72;;
22614;SDS011;11474;50.790;0.298;2023-03-20T16:55:48;22.17;;;4.28;;
22614;SDS011;11474;50.790;0.298;2023-03-20T16:58:19;20.88;;;4.40;;
22614;SDS011;11474;50.790;0.298;2023-03-20T17:00:56;19.80;;;4.50;;
22614;SDS011;11474;50.790;0.298;2023-03-20T17:03:33;18.33;;;4.57;;
22614;SDS011;11474;50.790;0.298;2023-03-20T17:08:50;20.20;;;4.82;;
22614;SDS011;11474;50.790;0.298;2023-03-20T17:11:27;15.48;;;3.50;;